METAR Data
IDs: Format: Raw Decoded Include TAF

Data at: 1122 UTC 16 Feb 2019

PACM 161056Z AUTO 18020G25KT 9SM CLR M02/M03 A2973 RMK AO2 SLP064 T10171028 FZRANO
PACM 160956Z AUTO 18018G22KT 7SM CLR M02/M03 A2972 RMK AO2 SLP059 T10221033 FZRANO
PACM 160856Z AUTO 18017KT 10SM CLR M02/M03 A2970 RMK AO2 SLP053 T10171033 410111078 53018 FZRANO
PACM 160756Z AUTO 18014KT 10SM CLR M02/M03 A2968 RMK AO2 SLP047 T10171028 FZRANO
PACM 160656Z AUTO 14014KT 10SM CLR M02/M03 A2967 RMK AO2 SLP042 T10221028 FZRANO
PACM 160556Z AUTO 17016KT 10SM FEW037 M01/M02 A2965 RMK AO2 SLP035 60000 T10111017 11011 21050 53018 FZRANO
PACM 160456Z AUTO 16016KT 10SM CLR M02/M02 A2963 RMK AO2 SLP029 T10171017 FZRANO
PACM 160425Z AUTO 15012KT 8SM SCT004 SCT025 M02/M03 A2962 RMK AO2 FZRANO
PACM 160356Z AUTO 13011KT 5SM BR OVC004 M02/M02 A2961 RMK AO2 SLP023 T10171022 FZRANO
PACM 160325Z AUTO 14012KT 4SM BR OVC004 M02/M02 A2960 RMK AO2 FZRANO
PACM 160303Z AUTO 15015G25KT 4SM BR OVC006 M02/M02 A2960 RMK AO2 FZRANO
PACM 160256Z AUTO 13014G21KT 2 1/2SM BR OVC006 M02/M02 A2960 RMK AO2 PK WND 11028/0157 UPB16E45SNE16 SLP018 P0000 60000 T10171022 56008 FZRANO
PACM 160240Z AUTO 12016G22KT 2 1/2SM UP BR OVC006 M02/M02 A2959 RMK AO2 PK WND 11028/0157 UPB16SNE16 P0000 FZRANO
PACM 160216Z AUTO 12018G27KT 1 1/4SM UP BR OVC006 M02/M03 A2959 RMK AO2 PK WND 11028/0157 UPB16SNE16 CIG 006V010 P0000 FZRANO
PACM 160207Z AUTO 13020G27KT 3/4SM -SN BR OVC008 M03/M03 A2959 RMK AO2 PK WND 11028/0157 CIG 006V011 P0000 FZRANO
PACM 160156Z AUTO 11023G32KT 1/2SM -SN FZFG OVC010 M03/M03 A2960 RMK AO2 PK WND 12039/0107 SNB12 CIG 007V013 SLP019 P0000 T10281033 FZRANO
PACM 160149Z AUTO 12021G32KT 1/2SM -SN FZFG OVC010 M03/M04 A2960 RMK AO2 PK WND 12039/0107 SNB12 CIG 007V013 P0000 FZRANO
PACM 160125Z AUTO 11027G36KT 1/4SM SN FZFG OVC012 M03/M04 A2960 RMK AO2 PK WND 12039/0107 SNB12 P0000 FZRANO
PACM 160056Z AUTO OVC012 M04/M05 A2959 RMK AO2 SLP017 T10441050 PWINO FZRANO $
PACM 160040Z AUTO SCT010 OVC016 M05/M06 A2961 RMK AO2 PWINO FZRANO $
PACM 160028Z AUTO FEW006 BKN010 OVC016 M05/M06 A2961 RMK AO2 CIG 008V013 PWINO FZRANO $
PACM 152356Z AUTO 10029G38KT BKN006 OVC011 M05/M06 A2962 RMK AO2 CIG 003V008 SLP026 60000 T10501056 11050 21078 56011 PWINO FZRANO $
PACM 152348Z AUTO BKN006 OVC011 M05/M06 A2962 RMK AO2 CIG 004V008 PWINO FZRANO $
PACM 152256Z AUTO OVC004 M06/M07 A2963 RMK AO2 SNEMM CIG 003V007 SLP031 P0000 T10561067 PWINO FZRANO $
PACM 152253Z AUTO 10026G35KT OVC004 M06/M07 A2963 RMK AO2 SNEMM CIG 003V007 P0000 PWINO FZRANO $
PACM 152243Z AUTO OVC006 M06/M07 A2964 RMK AO2 SNEMM CIG 003V009 P0000 PWINO FZRANO $
PACM 152235Z AUTO BKN004 OVC008 M06/M07 A2964 RMK AO2 SNEMM CIG 003V008 P0000 PWINO FZRANO $
PACM 152224Z AUTO BKN008 OVC016 M06/M07 A2964 RMK AO2 SNEMM CIG 004V012 P0000 PWINO FZRANO $
PACM 152214Z AUTO 10027G35KT BKN010 BKN017 OVC050 M06/M07 A2964 RMK AO2 PK WND 09038/2200 SNEMM CIG 007V012 P0000 PWINO FZRANO $
PACM 152211Z AUTO 10026G36KT 1/4SM +SN FZFG BKN010 BKN019 OVC050 M06/M07 A2965 RMK AO2 PK WND 09038/2200 P0000 FZRANO
PACM 152156Z AUTO 09029G36KT 1/4SM SN FZFG FEW032 BKN050 OVC065 M06/M07 A2965 RMK AO2 PK WND 09037/2135 SLP037 P0000 T10611072 FZRANO
PACM 152138Z AUTO 09028G37KT 1/2SM -SN FZFG FEW007 OVC065 M06/M07 A2966 RMK AO2 PK WND 09037/2135 P0000 FZRANO
PACM 152131Z AUTO 09025G33KT 3/4SM -SN BR FEW004 SCT007 OVC065 M06/M07 A2967 RMK AO2 PK WND 07034/2117 P0000 FZRANO
PACM 152109Z AUTO 08026G33KT 1/4SM -SN FZFG OVC007 M08/M08 A2968 RMK AO2 PK WND 07033/2104 CIG 003V013 P0000 FZRANO
PACM 152056Z AUTO 07030G35KT 1/2SM -SN FZFG BKN009 OVC080 M07/M08 A2968 RMK AO2 PK WND 07036/2045 CIG 004V011 SLP045 P0000 60000 T10721083 58026 FZRANO
PACM 152024Z AUTO 07026G30KT 1/2SM -SN FZFG OVC009 M07/M08 A2970 RMK AO2 PK WND 07032/2011 CIG 007V013 P0000 FZRANO
PACM 152010Z AUTO 08027G32KT 1/2SM -SN FZFG SCT006 OVC011 M07/M08 A2971 RMK AO2 PK WND 08032/2010 P0000 FZRANO
PACM 151956Z AUTO 09025G33KT 1/2SM -SN FZFG OVC006 M07/M08 A2972 RMK AO2 PK WND 07034/1923 UPB24E27SNB02E24B27 CIG 004V008 SLP060 P0000 T10721083 FZRANO
PACM 151930Z AUTO 08026G34KT 1/2SM -SN FZFG OVC006 M07/M08 A2972 RMK AO2 PK WND 07034/1923 UPB24E27SNB02E24B27 CIG 004V009 P0000 FZRANO
PACM 151856Z AUTO 07026KT 3/4SM BLSN BR OVC008 M07/M08 A2974 RMK AO2 PK WND 08032/1837 UPB37E41SNE37B41E53 SLP066 P0000 T10671078 FZRANO
PACM 151841Z AUTO 08024G32KT 1/2SM -SN FZFG OVC008 M07/M07 A2975 RMK AO2 PK WND 08032/1837 UPB37E41SNE37B41 P0000 FZRANO
PACM 151810Z AUTO 07026G32KT 3/4SM -SN BR OVC006 M07/M07 A2975 RMK AO2 PK WND 07032/1808 CIG 003V007 P0000 FZRANO
PACM 151756Z AUTO 10025G29KT 1/2SM SN FZFG OVC004 M06/M07 A2975 RMK AO2 PK WND 09029/1756 UPE03SNB03 SLP072 P0000 60000 T10611072 11028 21067 58029 FZRANO
PACM 151736Z AUTO 09021G28KT 1/2SM SN FZFG OVC004 M06/M07 A2976 RMK AO2 PK WND 10029/1705 UPE03SNB03 CIG 003V007 P0000 FZRANO
PACM 151722Z AUTO 08021G26KT 3/4SM -SN BR OVC004 M06/M07 A2978 RMK AO2 PK WND 10029/1705 UPE03SNB03 P0000 FZRANO
PACM 151715Z AUTO 08018G28KT 1/2SM -SN FZFG OVC004 M04/M06 A2979 RMK AO2 PK WND 10029/1705 UPE03SNB03 CIG 003V007 P0000 FZRANO
PACM 151702Z AUTO 09020G25KT 3/4SM UP BR OVC004 M05/M06 A2979 RMK AO2 P0000 FZRANO
PACM 151656Z AUTO 08018KT 1SM UP BR OVC006 M06/M07 A2980 RMK AO2 PK WND 09027/1630 UPB42SNE42 CIG 003V007 SLP087 P0000 T10611067 FZRANO
PACM 151638Z AUTO 08020G27KT 1SM -SN BR OVC006 M06/M06 A2981 RMK AO2 PK WND 09027/1630 P0000 FZRANO
PACM 151619Z AUTO 09021G25KT 3/4SM -SN BR OVC006 M04/M04 A2981 RMK AO2 PK WND 11026/1608 CIG 003V008 P0000 FZRANO
PACM 151610Z AUTO 10021G26KT 1SM -SN BR BKN004 OVC008 M04/M04 A2981 RMK AO2 PK WND 11026/1608 CIG 003V007 P0000 FZRANO
PACM 151602Z AUTO 10018G22KT 3/4SM -SN BR OVC006 M04/M06 A2982 RMK AO2 CIG 003V008 P0000 FZRANO
PACM 151556Z AUTO 07020KT 1/2SM SN FZFG OVC003 M06/M06 A2982 RMK AO2 PK WND 09027/1510 UPE08SNB08 CIG 003V006 SLP094 P0000 T10561061 FZRANO
PACM 151547Z AUTO 07019KT 1/2SM SN FZFG OVC005 M06/M06 A2982 RMK AO2 PK WND 09027/1510 UPE08SNB08 CIG 003V008 P0000 FZRANO
PACM 151539Z AUTO 08018KT 3/4SM -SN BR OVC005 M06/M06 A2984 RMK AO2 PK WND 09027/1510 UPE08SNB08 CIG 003V008 P0000 FZRANO
PACM 151509Z AUTO 09022G27KT 3/4SM -SN BR OVC007 M06/M07 A2984 RMK AO2 PK WND 09027/1508 UPE08SNB08 P0000 FZRANO
PACM 151456Z AUTO 10020G24KT 1 1/2SM UP BR OVC007 M06/M07 A2984 RMK AO2 PK WND 10026/1442 UPB48SNE48 CIG 006V011 SLP100 P0000 60000 T10561067 56017 FZRANO
PACM 151453Z AUTO 10019G24KT 1 1/2SM UP BR BKN007 OVC024 M06/M07 A2984 RMK AO2 PK WND 10026/1442 UPB48SNE48 CIG 003V011 P0000 FZRANO
PACM 151445Z AUTO 10018G26KT 1SM -SN BR FEW004 BKN009 OVC024 M05/M06 A2985 RMK AO2 PK WND 10026/1442 CIG 007V011 P0000 FZRANO
PACM 151437Z AUTO 09020G26KT 2 1/2SM -SN BR FEW004 BKN009 OVC024 M05/M06 A2985 RMK AO2 PK WND 08026/1437 CIG 007V014 P0000 FZRANO
PACM 151427Z AUTO 11009G19KT 4SM BR FEW004 BKN011 OVC026 M04/M06 A2986 RMK AO2 SNE26 CIG 007V014 P0000 FZRANO
PACM 151356Z AUTO 11009KT 4SM -SN BR OVC007 M04/M06 A2988 RMK AO2 CIG 005V010 SLP115 P0000 T10441056 FZRANO
PACM 151332Z AUTO 08012KT 8SM -SN OVC005 M04/M05 A2988 RMK AO2 CIG 005V009 P0000 FZRANO
PACM 151321Z AUTO 07011KT 9SM BKN007 OVC020 M06/M06 A2988 RMK AO2 SNE20 CIG 005V009 P0000 FZRANO
PACM 151307Z AUTO 06010KT 5SM -SN BR SCT005 OVC020 M06/M07 A2989 RMK AO2 P0000 FZRANO
PACM 151256Z AUTO 07012KT 4SM -SN BR BKN005 OVC020 M07/M07 A2989 RMK AO2 SNB52 CIG 004V009 SLP117 P0000 T10671072 FZRANO
PACM 151239Z AUTO 06010KT 10SM FEW001 BKN005 OVC022 M03/M03 A2989 RMK AO2 FZRANO
PACM 151233Z AUTO 08009KT 9SM BKN001 BKN007 BKN022 M03/M04 A2990 RMK AO2 CIG 001V006 FZRANO
PACM 151205Z AUTO 15014KT 7SM SCT003 OVC020 M04/M04 A2991 RMK AO2 FZRANO
PACM 151156Z AUTO 15010KT 5SM BR BKN003 OVC020 M04/M04 A2992 RMK AO2 SNE24B40E54 SLP126 P0000 60000 T10391044 11006 21044 50001 FZRANO
PACM 151124Z AUTO 10004KT 3SM BR BKN003 M04/M05 A2992 RMK AO2 SNE24 P0000 FZRANO
PACM 151116Z AUTO 00000KT 2 1/2SM -SN BR SCT003 BKN011 M04/M05 A2992 RMK AO2 P0000 FZRANO
PACM 151105Z AUTO VRB03KT 4SM -SN BR FEW003 SCT013 M04/M04 A2992 RMK AO2 P0000 FZRANO
PACM 151056Z AUTO 00000KT 4SM -SN BR SCT003 BKN011 M04/M04 A2992 RMK AO2 UPB49E50SNE49B50 SLP129 P0000 T10391044 FZRANO
PACM 151041Z AUTO 00000KT 3SM -SN BR BKN003 OVC014 M03/M04 A2992 RMK AO2 CIG 002V007 P0000 FZRANO
PACM 151031Z AUTO VRB05KT 1 3/4SM BR OVC003 M04/M04 A2992 RMK AO2 SNE30 CIG 002V007 P0000 FZRANO
PACM 151017Z AUTO VRB03KT 2 1/2SM -SN BR OVC005 M03/M04 A2993 RMK AO2 CIG 003V007 P0000 FZRANO
PACM 151003Z AUTO VRB05G14KT 4SM BR OVC005 M03/M03 A2992 RMK AO2 SNE02 CIG 003V008 P0000 FZRANO
PACM 150956Z AUTO 08009KT 2 1/2SM -SN BR BKN005 OVC009 M03/M04 A2992 RMK AO2 SNB24 CIG 003V007 SLP128 P0000 T10331039 FZRANO
PACM 150949Z AUTO 06010KT 2 1/2SM -SN BR BKN005 BKN009 M03/M04 A2992 RMK AO2 VIS 1 3/4V4 SNB24 CIG 003V007 P0000 FZRANO
PACM 150935Z AUTO 01007KT 2 1/2SM -SN BR FEW003 BKN009 M03/M04 A2991 RMK AO2 VIS 2V4 SNB24 CIG 008V012 P0000 FZRANO
PACM 150921Z AUTO VRB03KT 4SM BR FEW009 M03/M04 A2992 RMK AO2 FZRANO
PACM 150856Z AUTO 16007KT 10SM CLR M02/M03 A2991 RMK AO2 SNB27E41 SLP125 P0000 60000 T10171028 410061111 53015 FZRANO
PACM 150836Z AUTO 22007KT 240V230 4SM -SN BR FEW003 SCT013 SCT018 M03/M03 A2991 RMK AO2 SNB27 P0000 FZRANO
PACM 150830Z AUTO VRB04KT 3SM -SN BR FEW003 BKN011 BKN018 M03/M04 A2990 RMK AO2 SNB27 P0000 FZRANO
PACM 150814Z AUTO 13005KT 10SM BKN011 M02/M03 A2989 RMK AO2 FZRANO
PACM 150756Z AUTO 09006KT 10SM CLR M02/M03 A2989 RMK AO2 SLP116 T10221033 FZRANO
PACM 150656Z AUTO 19014KT 10SM CLR M01/M02 A2986 RMK AO2 SLP108 T10061022 FZRANO
PACM 150607Z AUTO 18010KT 8SM FEW005 SCT017 OVC041 M01/M02 A2987 RMK AO2 FZRANO
PACM 150556Z AUTO 17006KT 8SM SCT017 SCT022 OVC043 M01/M02 A2987 RMK AO2 SLP111 60000 T10111017 11011 21061 53020 FZRANO
PACM 150550Z AUTO 17008KT 9SM FEW006 SCT018 BKN022 M01/M02 A2987 RMK AO2 FZRANO
PACM 150456Z AUTO 18011KT 10SM BKN047 M02/M02 A2984 RMK AO2 SLP101 T10171022 FZRANO
PACM 150356Z AUTO 16012KT 7SM SCT004 OVC090 M02/M02 A2983 RMK AO2 SLP096 T10221022 FZRANO
PACM 150256Z AUTO 15016KT 4SM BR BKN004 M03/M03 A2981 RMK AO2 SNE45 SLP090 P0000 60000 T10281033 53001 FZRANO
PACM 150225Z AUTO 15019KT 3SM -SN BR SCT006 SCT015 M03/M04 A2980 RMK AO2 P0000 FZRANO
PACM 150213Z AUTO 15018KT 3SM -SN BR BKN006 BKN018 M03/M04 A2980 RMK AO2 CIG 003V009 P0000 FZRANO
PACM 150204Z AUTO 15022G25KT 1 3/4SM -SN BR FEW003 BKN008 BKN018 M03/M04 A2980 RMK AO2 CIG 006V010 P0000 FZRANO
PACM 150156Z AUTO 15020G25KT 1SM -SN BR BKN006 OVC014 M03/M04 A2980 RMK AO2 PK WND 14027/0116 SNB0057 CIG 003V011 SLP086 P0000 T10331039 FZRANO
PACM 150144Z AUTO 14018G24KT 1SM -SN BR OVC008 M03/M04 A2981 RMK AO2 PK WND 14027/0116 SNB0057 CIG 003V011 P0000 FZRANO
PACM 150130Z AUTO 15020G26KT 1SM -SN BR FEW004 OVC010 M04/M04 A2981 RMK AO2 PK WND 14027/0116 SNB0057 P0000 FZRANO
PACM 150121Z AUTO 14021G27KT 1SM -SN BR OVC010 M04/M04 A2981 RMK AO2 PK WND 14027/0116 SNB0057 CIG 007V013 P0000 FZRANO
PACM 150109Z AUTO 16020G26KT 3/4SM -SN BR BKN012 OVC018 M05/M06 A2981 RMK AO2 PK WND 15026/0109 SNB0057 P0000 FZRANO
PACM 150056Z AUTO 16015G22KT FEW004 BKN014 OVC020 M06/M06 A2981 RMK AO2 PK WND 13032/0009 SLP091 T10561061 FZRANO
PACM 150051Z AUTO 15015G25KT FEW004 SCT010 OVC017 M06/M06 A2981 RMK AO2 PK WND 13032/0009 PWINO FZRANO $
PACM 150043Z AUTO 13020G27KT BKN004 OVC020 M06/M07 A2981 RMK AO2 PK WND 13032/0009 CIG 003V008 PWINO FZRANO $
PACM 150005Z AUTO 13022G31KT BKN006 OVC009 M06/M07 A2980 RMK AO2 PK WND 13031/2358 CIG 003V007 PWINO FZRANO $
PACM 142356Z AUTO 13021G31KT FEW005 OVC011 M06/M07 A2980 RMK AO2 PK WND 11034/2259 SLP088 60000 T10611067 11061 21072 56029 PWINO FZRANO $
PACM 142343Z AUTO 13026G33KT FEW005 OVC011 M06/M07 A2980 RMK AO2 PK WND 11034/2259 CIG 009V014 PWINO FZRANO $
PACM 142336Z AUTO 13027G33KT BKN005 OVC011 M06/M07 A2980 RMK AO2 PK WND 11034/2259 CIG 003V010 PWINO FZRANO $